X  Fermer Données météorologiques d'aviation de Metar     EDTY Adolf Würth Airport
Température
24°C Température
15°C Point de rosée
57% Humidité



Vent
7 MPH
11 KM/H
3 M/S
6 KTS



280°
O
Conditions actuelles

Nuages épars Nuages épars
Pression 1018.96 (hPa) - 30.09 (inHg)
Visibilité 6 (mile) - 9.7 (km)
Aéroport
Code de l'aéroport EDTY

Emplacement: Adolf Würth Airport
Distance: 59 (mi)

Metar:
EDTY 231420Z 28006KT 240V310 9999 SCT046 24/15 Q1019

Temps: 23-07-2024 16:20 CEST